sensor_id;sensor_type;location;lat;lon;timestamp;P1;durP1;ratioP1;P2;durP2;ratioP2
40611;SDS011;26317;44.894;20.286;2024-02-21T00:00:00;37.92;;;26.63;;
40611;SDS011;26317;44.894;20.286;2024-02-21T00:02:39;39.70;;;28.05;;
40611;SDS011;26317;44.894;20.286;2024-02-21T00:05:37;32.15;;;23.92;;
40611;SDS011;26317;44.894;20.286;2024-02-21T00:08:17;32.75;;;25.27;;
40611;SDS011;26317;44.894;20.286;2024-02-21T00:10:57;29.27;;;23.05;;
40611;SDS011;26317;44.894;20.286;2024-02-21T00:13:35;34.65;;;23.60;;
40611;SDS011;26317;44.894;20.286;2024-02-21T00:16:13;28.38;;;21.70;;
40611;SDS011;26317;44.894;20.286;2024-02-21T00:18:52;25.63;;;22.30;;
40611;SDS011;26317;44.894;20.286;2024-02-21T00:21:35;29.85;;;23.40;;
40611;SDS011;26317;44.894;20.286;2024-02-21T00:24:14;29.55;;;22.75;;
40611;SDS011;26317;44.894;20.286;2024-02-21T00:27:06;30.60;;;23.67;;
40611;SDS011;26317;44.894;20.286;2024-02-21T00:29:48;29.58;;;22.55;;
40611;SDS011;26317;44.894;20.286;2024-02-21T00:32:31;27.88;;;22.35;;
40611;SDS011;26317;44.894;20.286;2024-02-21T00:35:11;32.00;;;24.38;;
40611;SDS011;26317;44.894;20.286;2024-02-21T00:37:53;30.67;;;23.58;;
40611;SDS011;26317;44.894;20.286;2024-02-21T00:40:30;29.30;;;24.08;;
40611;SDS011;26317;44.894;20.286;2024-02-21T00:43:11;27.00;;;20.92;;
40611;SDS011;26317;44.894;20.286;2024-02-21T00:45:48;28.95;;;22.00;;
40611;SDS011;26317;44.894;20.286;2024-02-21T00:48:25;26.88;;;20.45;;
40611;SDS011;26317;44.894;20.286;2024-02-21T00:51:05;28.70;;;20.95;;
40611;SDS011;26317;44.894;20.286;2024-02-21T00:53:43;22.67;;;20.15;;
40611;SDS011;26317;44.894;20.286;2024-02-21T00:56:19;23.90;;;19.13;;
40611;SDS011;26317;44.894;20.286;2024-02-21T00:59:08;25.00;;;20.55;;
40611;SDS011;26317;44.894;20.286;2024-02-21T01:01:46;23.17;;;19.13;;
40611;SDS011;26317;44.894;20.286;2024-02-21T01:04:29;26.05;;;20.23;;
40611;SDS011;26317;44.894;20.286;2024-02-21T01:07:05;24.92;;;21.85;;
40611;SDS011;26317;44.894;20.286;2024-02-21T01:09:48;25.40;;;21.95;;
40611;SDS011;26317;44.894;20.286;2024-02-21T01:14:59;26.17;;;21.55;;
40611;SDS011;26317;44.894;20.286;2024-02-21T01:17:44;25.92;;;21.50;;
40611;SDS011;26317;44.894;20.286;2024-02-21T01:20:19;34.03;;;24.00;;
40611;SDS011;26317;44.894;20.286;2024-02-21T01:22:56;26.35;;;23.20;;
40611;SDS011;26317;44.894;20.286;2024-02-21T01:25:33;28.95;;;23.67;;
40611;SDS011;26317;44.894;20.286;2024-02-21T01:31:15;30.88;;;23.17;;
40611;SDS011;26317;44.894;20.286;2024-02-21T01:33:53;28.42;;;22.60;;
40611;SDS011;26317;44.894;20.286;2024-02-21T01:36:32;31.92;;;23.92;;
40611;SDS011;26317;44.894;20.286;2024-02-21T01:39:07;30.95;;;25.05;;
40611;SDS011;26317;44.894;20.286;2024-02-21T01:41:49;29.25;;;24.02;;
40611;SDS011;26317;44.894;20.286;2024-02-21T01:44:31;34.13;;;24.48;;
40611;SDS011;26317;44.894;20.286;2024-02-21T01:47:17;31.17;;;26.08;;
40611;SDS011;26317;44.894;20.286;2024-02-21T01:49:52;27.65;;;24.05;;
40611;SDS011;26317;44.894;20.286;2024-02-21T01:52:30;31.00;;;25.02;;
40611;SDS011;26317;44.894;20.286;2024-02-21T01:55:11;28.02;;;24.65;;
40611;SDS011;26317;44.894;20.286;2024-02-21T01:57:58;26.38;;;23.23;;
40611;SDS011;26317;44.894;20.286;2024-02-21T02:00:37;30.45;;;23.90;;
40611;SDS011;26317;44.894;20.286;2024-02-21T02:03:24;29.45;;;24.65;;
40611;SDS011;26317;44.894;20.286;2024-02-21T02:06:12;34.28;;;26.50;;
40611;SDS011;26317;44.894;20.286;2024-02-21T02:08:53;29.58;;;24.60;;
40611;SDS011;26317;44.894;20.286;2024-02-21T02:11:34;28.00;;;23.58;;
40611;SDS011;26317;44.894;20.286;2024-02-21T02:14:18;28.35;;;22.40;;
40611;SDS011;26317;44.894;20.286;2024-02-21T02:16:58;46.67;;;33.88;;
40611;SDS011;26317;44.894;20.286;2024-02-21T02:19:56;41.47;;;31.98;;
40611;SDS011;26317;44.894;20.286;2024-02-21T02:23:02;44.75;;;35.28;;
40611;SDS011;26317;44.894;20.286;2024-02-21T02:26:00;31.15;;;25.67;;
40611;SDS011;26317;44.894;20.286;2024-02-21T02:28:45;25.63;;;21.60;;
40611;SDS011;26317;44.894;20.286;2024-02-21T02:31:25;25.95;;;21.13;;
40611;SDS011;26317;44.894;20.286;2024-02-21T02:34:01;26.23;;;21.70;;
40611;SDS011;26317;44.894;20.286;2024-02-21T02:36:38;26.63;;;22.02;;
40611;SDS011;26317;44.894;20.286;2024-02-21T02:39:36;27.40;;;22.85;;
40611;SDS011;26317;44.894;20.286;2024-02-21T02:42:30;28.90;;;23.27;;
40611;SDS011;26317;44.894;20.286;2024-02-21T02:45:12;28.23;;;22.45;;
40611;SDS011;26317;44.894;20.286;2024-02-21T02:47:56;26.92;;;21.90;;
40611;SDS011;26317;44.894;20.286;2024-02-21T02:50:37;25.10;;;22.15;;
40611;SDS011;26317;44.894;20.286;2024-02-21T02:53:12;26.10;;;22.40;;
40611;SDS011;26317;44.894;20.286;2024-02-21T02:55:52;24.55;;;21.50;;
40611;SDS011;26317;44.894;20.286;2024-02-21T02:58:40;28.83;;;22.67;;
40611;SDS011;26317;44.894;20.286;2024-02-21T03:01:21;24.77;;;21.63;;
40611;SDS011;26317;44.894;20.286;2024-02-21T03:04:01;24.95;;;20.67;;
40611;SDS011;26317;44.894;20.286;2024-02-21T03:06:36;24.88;;;19.42;;
40611;SDS011;26317;44.894;20.286;2024-02-21T03:09:29;30.35;;;21.95;;
40611;SDS011;26317;44.894;20.286;2024-02-21T03:12:10;29.33;;;21.45;;
40611;SDS011;26317;44.894;20.286;2024-02-21T03:14:59;25.00;;;21.45;;
40611;SDS011;26317;44.894;20.286;2024-02-21T03:17:40;28.90;;;21.85;;
40611;SDS011;26317;44.894;20.286;2024-02-21T03:20:30;22.85;;;18.95;;
40611;SDS011;26317;44.894;20.286;2024-02-21T03:23:13;25.40;;;19.45;;
40611;SDS011;26317;44.894;20.286;2024-02-21T03:25:45;22.73;;;19.02;;
40611;SDS011;26317;44.894;20.286;2024-02-21T03:28:22;20.52;;;18.33;;
40611;SDS011;26317;44.894;20.286;2024-02-21T03:31:16;20.25;;;17.00;;
40611;SDS011;26317;44.894;20.286;2024-02-21T03:34:02;17.38;;;14.55;;
40611;SDS011;26317;44.894;20.286;2024-02-21T03:36:36;15.40;;;13.32;;
40611;SDS011;26317;44.894;20.286;2024-02-21T03:39:13;15.35;;;12.88;;
40611;SDS011;26317;44.894;20.286;2024-02-21T03:41:53;15.90;;;11.95;;
40611;SDS011;26317;44.894;20.286;2024-02-21T03:44:37;13.05;;;10.90;;
40611;SDS011;26317;44.894;20.286;2024-02-21T03:47:15;14.55;;;11.48;;
40611;SDS011;26317;44.894;20.286;2024-02-21T03:49:48;11.52;;;10.20;;
40611;SDS011;26317;44.894;20.286;2024-02-21T03:52:33;11.18;;;9.02;;
40611;SDS011;26317;44.894;20.286;2024-02-21T03:55:09;9.95;;;8.95;;
40611;SDS011;26317;44.894;20.286;2024-02-21T03:57:53;10.32;;;9.25;;
40611;SDS011;26317;44.894;20.286;2024-02-21T04:00:39;10.35;;;8.60;;
40611;SDS011;26317;44.894;20.286;2024-02-21T04:03:26;9.48;;;8.40;;
40611;SDS011;26317;44.894;20.286;2024-02-21T04:06:11;9.15;;;8.25;;
40611;SDS011;26317;44.894;20.286;2024-02-21T04:08:53;9.23;;;8.32;;
40611;SDS011;26317;44.894;20.286;2024-02-21T04:11:33;11.85;;;8.77;;
40611;SDS011;26317;44.894;20.286;2024-02-21T04:14:07;9.07;;;8.18;;
40611;SDS011;26317;44.894;20.286;2024-02-21T04:16:47;8.77;;;7.80;;
40611;SDS011;26317;44.894;20.286;2024-02-21T04:19:38;9.55;;;8.48;;
40611;SDS011;26317;44.894;20.286;2024-02-21T04:22:20;9.00;;;8.10;;
40611;SDS011;26317;44.894;20.286;2024-02-21T04:25:09;9.13;;;8.20;;
40611;SDS011;26317;44.894;20.286;2024-02-21T04:27:52;9.30;;;8.20;;
40611;SDS011;26317;44.894;20.286;2024-02-21T04:30:35;9.65;;;7.50;;
40611;SDS011;26317;44.894;20.286;2024-02-21T04:33:13;8.70;;;7.78;;
40611;SDS011;26317;44.894;20.286;2024-02-21T04:35:53;13.00;;;7.90;;
40611;SDS011;26317;44.894;20.286;2024-02-21T04:38:31;8.93;;;8.00;;
40611;SDS011;26317;44.894;20.286;2024-02-21T04:41:11;12.07;;;9.50;;
40611;SDS011;26317;44.894;20.286;2024-02-21T04:43:52;16.25;;;10.25;;
40611;SDS011;26317;44.894;20.286;2024-02-21T04:46:43;16.92;;;11.25;;
40611;SDS011;26317;44.894;20.286;2024-02-21T04:49:22;12.32;;;9.68;;
40611;SDS011;26317;44.894;20.286;2024-02-21T04:52:14;13.68;;;10.07;;
40611;SDS011;26317;44.894;20.286;2024-02-21T04:54:53;17.48;;;15.63;;
40611;SDS011;26317;44.894;20.286;2024-02-21T04:57:30;32.45;;;28.63;;
40611;SDS011;26317;44.894;20.286;2024-02-21T05:00:07;25.13;;;22.23;;
40611;SDS011;26317;44.894;20.286;2024-02-21T05:02:50;23.15;;;18.30;;
40611;SDS011;26317;44.894;20.286;2024-02-21T05:05:29;15.43;;;13.80;;
40611;SDS011;26317;44.894;20.286;2024-02-21T05:08:14;17.00;;;15.20;;
40611;SDS011;26317;44.894;20.286;2024-02-21T05:10:52;17.27;;;13.75;;
40611;SDS011;26317;44.894;20.286;2024-02-21T05:13:41;16.75;;;13.88;;
40611;SDS011;26317;44.894;20.286;2024-02-21T05:16:20;17.80;;;15.40;;
40611;SDS011;26317;44.894;20.286;2024-02-21T05:18:58;21.50;;;17.08;;
40611;SDS011;26317;44.894;20.286;2024-02-21T05:21:41;20.45;;;16.48;;
40611;SDS011;26317;44.894;20.286;2024-02-21T05:24:38;18.05;;;15.60;;
40611;SDS011;26317;44.894;20.286;2024-02-21T05:27:13;21.98;;;17.48;;
40611;SDS011;26317;44.894;20.286;2024-02-21T05:30:01;18.15;;;16.25;;
40611;SDS011;26317;44.894;20.286;2024-02-21T05:32:45;20.17;;;17.35;;
40611;SDS011;26317;44.894;20.286;2024-02-21T05:35:21;19.77;;;16.52;;
40611;SDS011;26317;44.894;20.286;2024-02-21T05:38:05;20.67;;;17.40;;
40611;SDS011;26317;44.894;20.286;2024-02-21T05:40:54;20.40;;;18.27;;
40611;SDS011;26317;44.894;20.286;2024-02-21T05:43:38;20.30;;;17.88;;
40611;SDS011;26317;44.894;20.286;2024-02-21T05:46:21;24.23;;;20.73;;
40611;SDS011;26317;44.894;20.286;2024-02-21T05:49:14;26.17;;;17.65;;
40611;SDS011;26317;44.894;20.286;2024-02-21T05:51:49;26.58;;;16.67;;
40611;SDS011;26317;44.894;20.286;2024-02-21T05:54:46;19.08;;;16.45;;
40611;SDS011;26317;44.894;20.286;2024-02-21T05:57:35;16.67;;;14.82;;
40611;SDS011;26317;44.894;20.286;2024-02-21T06:00:17;19.60;;;16.20;;
40611;SDS011;26317;44.894;20.286;2024-02-21T06:02:53;21.27;;;18.55;;
40611;SDS011;26317;44.894;20.286;2024-02-21T06:05:37;39.13;;;33.33;;
40611;SDS011;26317;44.894;20.286;2024-02-21T06:08:11;79.07;;;67.80;;
40611;SDS011;26317;44.894;20.286;2024-02-21T06:10:47;82.75;;;72.70;;
40611;SDS011;26317;44.894;20.286;2024-02-21T06:13:40;82.70;;;73.78;;
40611;SDS011;26317;44.894;20.286;2024-02-21T06:16:17;86.50;;;77.05;;
40611;SDS011;26317;44.894;20.286;2024-02-21T06:18:51;76.43;;;67.95;;
40611;SDS011;26317;44.894;20.286;2024-02-21T06:21:40;68.07;;;60.33;;
40611;SDS011;26317;44.894;20.286;2024-02-21T06:24:19;68.05;;;58.45;;
40611;SDS011;26317;44.894;20.286;2024-02-21T06:27:00;63.08;;;56.17;;
40611;SDS011;26317;44.894;20.286;2024-02-21T06:29:59;91.28;;;80.80;;
40611;SDS011;26317;44.894;20.286;2024-02-21T06:32:38;89.72;;;79.90;;
40611;SDS011;26317;44.894;20.286;2024-02-21T06:35:15;86.88;;;77.65;;
40611;SDS011;26317;44.894;20.286;2024-02-21T06:38:01;84.70;;;75.85;;
40611;SDS011;26317;44.894;20.286;2024-02-21T06:40:44;81.80;;;72.88;;
40611;SDS011;26317;44.894;20.286;2024-02-21T06:43:21;72.55;;;64.85;;
40611;SDS011;26317;44.894;20.286;2024-02-21T06:46:21;68.07;;;60.33;;
40611;SDS011;26317;44.894;20.286;2024-02-21T06:49:02;68.38;;;60.92;;
40611;SDS011;26317;44.894;20.286;2024-02-21T06:51:40;66.68;;;59.40;;
40611;SDS011;26317;44.894;20.286;2024-02-21T06:54:14;60.40;;;53.92;;
40611;SDS011;26317;44.894;20.286;2024-02-21T06:56:54;51.30;;;45.70;;
40611;SDS011;26317;44.894;20.286;2024-02-21T06:59:37;46.85;;;41.85;;
40611;SDS011;26317;44.894;20.286;2024-02-21T07:02:15;44.95;;;40.08;;
40611;SDS011;26317;44.894;20.286;2024-02-21T07:04:52;44.37;;;39.67;;
40611;SDS011;26317;44.894;20.286;2024-02-21T07:07:50;51.30;;;45.78;;
40611;SDS011;26317;44.894;20.286;2024-02-21T07:10:30;59.30;;;52.15;;
40611;SDS011;26317;44.894;20.286;2024-02-21T07:13:08;92.13;;;82.60;;
40611;SDS011;26317;44.894;20.286;2024-02-21T07:15:49;119.50;;;107.03;;
40611;SDS011;26317;44.894;20.286;2024-02-21T07:18:33;123.55;;;110.40;;
40611;SDS011;26317;44.894;20.286;2024-02-21T07:21:07;87.50;;;77.88;;
40611;SDS011;26317;44.894;20.286;2024-02-21T07:23:48;76.20;;;67.93;;
40611;SDS011;26317;44.894;20.286;2024-02-21T07:26:28;45.40;;;38.80;;
40611;SDS011;26317;44.894;20.286;2024-02-21T07:29:15;51.78;;;43.17;;
40611;SDS011;26317;44.894;20.286;2024-02-21T07:31:54;71.15;;;61.80;;
40611;SDS011;26317;44.894;20.286;2024-02-21T07:34:44;64.13;;;50.38;;
40611;SDS011;26317;44.894;20.286;2024-02-21T07:37:19;51.38;;;35.92;;
40611;SDS011;26317;44.894;20.286;2024-02-21T07:40:03;36.83;;;25.75;;
40611;SDS011;26317;44.894;20.286;2024-02-21T07:42:47;74.40;;;45.25;;
40611;SDS011;26317;44.894;20.286;2024-02-21T07:45:28;25.63;;;16.92;;
40611;SDS011;26317;44.894;20.286;2024-02-21T07:48:07;70.10;;;40.15;;
40611;SDS011;26317;44.894;20.286;2024-02-21T07:50:53;62.88;;;35.15;;
40611;SDS011;26317;44.894;20.286;2024-02-21T07:53:32;28.40;;;19.77;;
40611;SDS011;26317;44.894;20.286;2024-02-21T07:56:06;51.03;;;31.05;;
40611;SDS011;26317;44.894;20.286;2024-02-21T07:58:42;44.63;;;30.50;;
40611;SDS011;26317;44.894;20.286;2024-02-21T08:01:35;44.33;;;27.63;;
40611;SDS011;26317;44.894;20.286;2024-02-21T08:04:16;19.98;;;15.40;;
40611;SDS011;26317;44.894;20.286;2024-02-21T08:07:15;13.32;;;11.82;;
40611;SDS011;26317;44.894;20.286;2024-02-21T08:09:55;12.80;;;9.90;;
40611;SDS011;26317;44.894;20.286;2024-02-21T08:12:36;12.75;;;10.45;;
40611;SDS011;26317;44.894;20.286;2024-02-21T08:15:18;12.02;;;10.43;;
40611;SDS011;26317;44.894;20.286;2024-02-21T08:18:12;12.70;;;9.82;;
40611;SDS011;26317;44.894;20.286;2024-02-21T08:20:50;13.02;;;9.40;;
40611;SDS011;26317;44.894;20.286;2024-02-21T08:23:33;12.30;;;8.15;;
40611;SDS011;26317;44.894;20.286;2024-02-21T08:26:12;17.30;;;10.57;;
40611;SDS011;26317;44.894;20.286;2024-02-21T08:28:51;17.00;;;11.68;;
40611;SDS011;26317;44.894;20.286;2024-02-21T08:31:31;13.60;;;10.63;;
40611;SDS011;26317;44.894;20.286;2024-02-21T08:34:11;18.05;;;13.05;;
40611;SDS011;26317;44.894;20.286;2024-02-21T08:36:54;11.70;;;7.95;;
40611;SDS011;26317;44.894;20.286;2024-02-21T08:39:42;10.80;;;7.60;;
40611;SDS011;26317;44.894;20.286;2024-02-21T08:42:21;10.85;;;7.22;;
40611;SDS011;26317;44.894;20.286;2024-02-21T08:45:02;8.75;;;5.47;;
40611;SDS011;26317;44.894;20.286;2024-02-21T08:47:39;9.40;;;7.18;;
40611;SDS011;26317;44.894;20.286;2024-02-21T08:50:17;11.05;;;8.10;;
40611;SDS011;26317;44.894;20.286;2024-02-21T08:53:10;23.55;;;16.60;;
40611;SDS011;26317;44.894;20.286;2024-02-21T08:55:49;15.90;;;12.30;;
40611;SDS011;26317;44.894;20.286;2024-02-21T08:58:29;27.85;;;18.92;;
40611;SDS011;26317;44.894;20.286;2024-02-21T09:01:07;7.72;;;6.68;;
40611;SDS011;26317;44.894;20.286;2024-02-21T09:03:42;9.77;;;5.78;;
40611;SDS011;26317;44.894;20.286;2024-02-21T09:06:26;10.57;;;5.68;;
40611;SDS011;26317;44.894;20.286;2024-02-21T09:14:36;11.27;;;7.32;;
40611;SDS011;26317;44.894;20.286;2024-02-21T09:17:14;10.35;;;6.88;;
40611;SDS011;26317;44.894;20.286;2024-02-21T09:19:54;11.00;;;7.72;;
40611;SDS011;26317;44.894;20.286;2024-02-21T09:22:36;8.98;;;7.10;;
40611;SDS011;26317;44.894;20.286;2024-02-21T09:25:14;10.20;;;6.95;;
40611;SDS011;26317;44.894;20.286;2024-02-21T09:28:05;10.35;;;7.43;;
40611;SDS011;26317;44.894;20.286;2024-02-21T09:30:50;19.00;;;14.40;;
40611;SDS011;26317;44.894;20.286;2024-02-21T09:33:26;19.20;;;14.53;;
40611;SDS011;26317;44.894;20.286;2024-02-21T09:36:09;10.45;;;8.25;;
40611;SDS011;26317;44.894;20.286;2024-02-21T09:38:49;8.93;;;7.13;;
40611;SDS011;26317;44.894;20.286;2024-02-21T09:41:26;9.40;;;5.70;;
40611;SDS011;26317;44.894;20.286;2024-02-21T09:44:12;12.50;;;8.40;;
40611;SDS011;26317;44.894;20.286;2024-02-21T09:46:52;10.27;;;6.38;;
40611;SDS011;26317;44.894;20.286;2024-02-21T09:49:40;12.50;;;8.75;;
40611;SDS011;26317;44.894;20.286;2024-02-21T09:52:33;10.43;;;6.50;;
40611;SDS011;26317;44.894;20.286;2024-02-21T09:55:13;10.95;;;6.65;;
40611;SDS011;26317;44.894;20.286;2024-02-21T09:57:59;11.57;;;7.50;;
40611;SDS011;26317;44.894;20.286;2024-02-21T10:00:48;12.15;;;6.65;;
40611;SDS011;26317;44.894;20.286;2024-02-21T10:03:23;14.95;;;9.35;;
40611;SDS011;26317;44.894;20.286;2024-02-21T10:06:00;10.90;;;5.80;;
40611;SDS011;26317;44.894;20.286;2024-02-21T10:08:51;15.57;;;7.78;;
40611;SDS011;26317;44.894;20.286;2024-02-21T10:11:32;10.75;;;7.60;;
40611;SDS011;26317;44.894;20.286;2024-02-21T10:14:11;9.98;;;6.07;;
40611;SDS011;26317;44.894;20.286;2024-02-21T10:16:48;11.55;;;8.02;;
40611;SDS011;26317;44.894;20.286;2024-02-21T10:19:34;11.50;;;7.25;;
40611;SDS011;26317;44.894;20.286;2024-02-21T10:22:17;12.02;;;6.88;;
40611;SDS011;26317;44.894;20.286;2024-02-21T10:24:54;9.65;;;7.47;;
40611;SDS011;26317;44.894;20.286;2024-02-21T10:27:47;7.80;;;5.50;;
40611;SDS011;26317;44.894;20.286;2024-02-21T10:30:37;9.27;;;6.03;;
40611;SDS011;26317;44.894;20.286;2024-02-21T10:33:26;22.38;;;13.25;;
40611;SDS011;26317;44.894;20.286;2024-02-21T10:36:13;12.95;;;8.63;;
40611;SDS011;26317;44.894;20.286;2024-02-21T10:38:53;9.52;;;5.97;;
40611;SDS011;26317;44.894;20.286;2024-02-21T10:41:28;12.25;;;5.70;;
40611;SDS011;26317;44.894;20.286;2024-02-21T10:44:25;13.00;;;7.60;;
40611;SDS011;26317;44.894;20.286;2024-02-21T10:47:11;8.50;;;5.63;;
40611;SDS011;26317;44.894;20.286;2024-02-21T10:50:02;10.43;;;5.45;;
40611;SDS011;26317;44.894;20.286;2024-02-21T10:52:44;10.55;;;7.45;;
40611;SDS011;26317;44.894;20.286;2024-02-21T10:55:41;12.27;;;6.93;;
40611;SDS011;26317;44.894;20.286;2024-02-21T10:58:25;15.32;;;8.55;;
40611;SDS011;26317;44.894;20.286;2024-02-21T11:01:20;14.05;;;9.05;;
40611;SDS011;26317;44.894;20.286;2024-02-21T11:04:01;9.35;;;5.20;;
40611;SDS011;26317;44.894;20.286;2024-02-21T11:06:43;14.27;;;6.63;;
40611;SDS011;26317;44.894;20.286;2024-02-21T11:09:30;10.75;;;7.50;;
40611;SDS011;26317;44.894;20.286;2024-02-21T11:12:08;12.45;;;6.88;;
40611;SDS011;26317;44.894;20.286;2024-02-21T11:15:12;13.45;;;6.57;;
40611;SDS011;26317;44.894;20.286;2024-02-21T11:17:53;8.68;;;5.88;;
40611;SDS011;26317;44.894;20.286;2024-02-21T11:20:35;11.55;;;5.65;;
40611;SDS011;26317;44.894;20.286;2024-02-21T11:23:37;11.20;;;5.15;;
40611;SDS011;26317;44.894;20.286;2024-02-21T11:26:18;14.88;;;7.20;;
40611;SDS011;26317;44.894;20.286;2024-02-21T11:29:07;7.55;;;4.50;;
40611;SDS011;26317;44.894;20.286;2024-02-21T11:31:46;9.32;;;5.28;;
40611;SDS011;26317;44.894;20.286;2024-02-21T11:34:22;9.70;;;5.85;;
40611;SDS011;26317;44.894;20.286;2024-02-21T11:36:57;8.98;;;4.57;;
40611;SDS011;26317;44.894;20.286;2024-02-21T11:39:47;9.00;;;4.72;;
40611;SDS011;26317;44.894;20.286;2024-02-21T11:42:25;10.75;;;4.70;;
40611;SDS011;26317;44.894;20.286;2024-02-21T11:45:06;8.13;;;4.80;;
40611;SDS011;26317;44.894;20.286;2024-02-21T11:47:55;8.55;;;4.90;;
40611;SDS011;26317;44.894;20.286;2024-02-21T11:50:35;12.50;;;5.93;;
40611;SDS011;26317;44.894;20.286;2024-02-21T11:53:16;9.63;;;4.82;;
40611;SDS011;26317;44.894;20.286;2024-02-21T11:56:27;11.27;;;4.85;;
40611;SDS011;26317;44.894;20.286;2024-02-21T11:59:14;9.77;;;5.15;;
40611;SDS011;26317;44.894;20.286;2024-02-21T12:01:48;12.23;;;5.28;;
40611;SDS011;26317;44.894;20.286;2024-02-21T12:04:35;8.93;;;5.57;;
40611;SDS011;26317;44.894;20.286;2024-02-21T12:07:14;9.32;;;5.90;;
40611;SDS011;26317;44.894;20.286;2024-02-21T12:09:52;10.77;;;6.05;;
40611;SDS011;26317;44.894;20.286;2024-02-21T12:12:47;10.77;;;5.72;;
40611;SDS011;26317;44.894;20.286;2024-02-21T12:15:30;13.13;;;7.45;;
40611;SDS011;26317;44.894;20.286;2024-02-21T12:18:15;12.38;;;8.60;;
40611;SDS011;26317;44.894;20.286;2024-02-21T12:20:58;10.55;;;7.07;;
40611;SDS011;26317;44.894;20.286;2024-02-21T12:23:38;10.25;;;7.38;;
40611;SDS011;26317;44.894;20.286;2024-02-21T12:26:19;13.48;;;7.25;;
40611;SDS011;26317;44.894;20.286;2024-02-21T12:31:51;6.85;;;5.05;;
40611;SDS011;26317;44.894;20.286;2024-02-21T12:34:30;11.57;;;5.63;;
40611;SDS011;26317;44.894;20.286;2024-02-21T12:37:22;8.18;;;5.40;;
40611;SDS011;26317;44.894;20.286;2024-02-21T12:39:58;10.10;;;5.85;;
40611;SDS011;26317;44.894;20.286;2024-02-21T12:42:46;11.30;;;5.43;;
40611;SDS011;26317;44.894;20.286;2024-02-21T12:45:27;11.05;;;6.60;;
40611;SDS011;26317;44.894;20.286;2024-02-21T12:48:14;9.98;;;6.15;;
40611;SDS011;26317;44.894;20.286;2024-02-21T12:50:56;12.48;;;6.53;;
40611;SDS011;26317;44.894;20.286;2024-02-21T12:53:35;8.63;;;6.15;;
40611;SDS011;26317;44.894;20.286;2024-02-21T12:56:13;10.43;;;6.72;;
40611;SDS011;26317;44.894;20.286;2024-02-21T12:58:51;14.45;;;6.25;;
40611;SDS011;26317;44.894;20.286;2024-02-21T13:01:46;12.57;;;5.65;;
40611;SDS011;26317;44.894;20.286;2024-02-21T13:04:23;12.57;;;6.78;;
40611;SDS011;26317;44.894;20.286;2024-02-21T13:07:01;20.55;;;8.38;;
40611;SDS011;26317;44.894;20.286;2024-02-21T13:09:40;11.20;;;7.13;;
40611;SDS011;26317;44.894;20.286;2024-02-21T13:12:14;12.13;;;6.55;;
40611;SDS011;26317;44.894;20.286;2024-02-21T13:14:58;8.98;;;5.57;;
40611;SDS011;26317;44.894;20.286;2024-02-21T13:17:41;11.88;;;5.93;;
40611;SDS011;26317;44.894;20.286;2024-02-21T13:20:22;9.02;;;5.72;;
40611;SDS011;26317;44.894;20.286;2024-02-21T13:23:03;13.73;;;6.07;;
40611;SDS011;26317;44.894;20.286;2024-02-21T13:25:41;12.95;;;5.93;;
40611;SDS011;26317;44.894;20.286;2024-02-21T13:28:28;10.55;;;5.45;;
40611;SDS011;26317;44.894;20.286;2024-02-21T13:31:01;12.95;;;4.60;;
40611;SDS011;26317;44.894;20.286;2024-02-21T13:33:47;5.88;;;4.10;;
40611;SDS011;26317;44.894;20.286;2024-02-21T13:36:22;6.78;;;3.63;;
40611;SDS011;26317;44.894;20.286;2024-02-21T13:38:59;11.57;;;3.67;;
40611;SDS011;26317;44.894;20.286;2024-02-21T13:41:36;6.35;;;3.25;;
40611;SDS011;26317;44.894;20.286;2024-02-21T13:44:17;11.53;;;4.23;;
40611;SDS011;26317;44.894;20.286;2024-02-21T13:46:57;8.30;;;4.05;;
40611;SDS011;26317;44.894;20.286;2024-02-21T13:49:44;6.85;;;4.40;;
40611;SDS011;26317;44.894;20.286;2024-02-21T13:52:20;7.15;;;3.72;;
40611;SDS011;26317;44.894;20.286;2024-02-21T13:55:08;9.15;;;3.92;;
40611;SDS011;26317;44.894;20.286;2024-02-21T13:57:46;10.23;;;3.35;;
40611;SDS011;26317;44.894;20.286;2024-02-21T14:00:21;9.07;;;3.33;;
40611;SDS011;26317;44.894;20.286;2024-02-21T14:03:06;9.32;;;3.75;;
40611;SDS011;26317;44.894;20.286;2024-02-21T14:05:41;13.20;;;4.13;;
40611;SDS011;26317;44.894;20.286;2024-02-21T14:08:18;7.85;;;3.75;;
40611;SDS011;26317;44.894;20.286;2024-02-21T14:11:07;6.22;;;3.25;;
40611;SDS011;26317;44.894;20.286;2024-02-21T14:13:44;8.20;;;3.95;;
40611;SDS011;26317;44.894;20.286;2024-02-21T14:16:26;12.07;;;5.28;;
40611;SDS011;26317;44.894;20.286;2024-02-21T14:19:04;12.93;;;6.80;;
40611;SDS011;26317;44.894;20.286;2024-02-21T14:21:50;10.88;;;6.68;;
40611;SDS011;26317;44.894;20.286;2024-02-21T14:26:59;4.22;;;3.13;;
40611;SDS011;26317;44.894;20.286;2024-02-21T14:29:40;8.45;;;4.30;;
40611;SDS011;26317;44.894;20.286;2024-02-21T14:32:18;10.18;;;4.60;;
40611;SDS011;26317;44.894;20.286;2024-02-21T14:34:59;8.25;;;4.35;;
40611;SDS011;26317;44.894;20.286;2024-02-21T14:37:42;7.72;;;4.85;;
40611;SDS011;26317;44.894;20.286;2024-02-21T14:40:17;8.55;;;5.22;;
40611;SDS011;26317;44.894;20.286;2024-02-21T14:42:51;10.10;;;5.50;;
40611;SDS011;26317;44.894;20.286;2024-02-21T14:45:35;12.40;;;5.63;;
40611;SDS011;26317;44.894;20.286;2024-02-21T14:48:27;11.93;;;5.35;;
40611;SDS011;26317;44.894;20.286;2024-02-21T14:51:07;8.55;;;4.05;;
40611;SDS011;26317;44.894;20.286;2024-02-21T14:53:49;8.35;;;4.22;;
40611;SDS011;26317;44.894;20.286;2024-02-21T14:56:25;15.40;;;4.07;;
40611;SDS011;26317;44.894;20.286;2024-02-21T14:59:12;9.75;;;4.68;;
40611;SDS011;26317;44.894;20.286;2024-02-21T15:02:01;7.45;;;4.75;;
40611;SDS011;26317;44.894;20.286;2024-02-21T15:04:58;9.82;;;4.68;;
40611;SDS011;26317;44.894;20.286;2024-02-21T15:07:38;10.52;;;4.88;;
40611;SDS011;26317;44.894;20.286;2024-02-21T15:10:20;13.48;;;6.15;;
40611;SDS011;26317;44.894;20.286;2024-02-21T15:12:58;11.98;;;7.53;;
40611;SDS011;26317;44.894;20.286;2024-02-21T15:15:30;17.52;;;9.65;;
40611;SDS011;26317;44.894;20.286;2024-02-21T15:18:09;17.58;;;9.15;;
40611;SDS011;26317;44.894;20.286;2024-02-21T15:20:51;15.50;;;8.32;;
40611;SDS011;26317;44.894;20.286;2024-02-21T15:23:31;21.15;;;10.98;;
40611;SDS011;26317;44.894;20.286;2024-02-21T15:26:18;23.85;;;14.25;;
40611;SDS011;26317;44.894;20.286;2024-02-21T15:28:54;23.55;;;14.38;;
40611;SDS011;26317;44.894;20.286;2024-02-21T15:31:31;23.15;;;11.95;;
40611;SDS011;26317;44.894;20.286;2024-02-21T15:34:09;17.40;;;8.73;;
40611;SDS011;26317;44.894;20.286;2024-02-21T15:36:53;18.23;;;9.57;;
40611;SDS011;26317;44.894;20.286;2024-02-21T15:39:30;20.80;;;12.37;;
40611;SDS011;26317;44.894;20.286;2024-02-21T15:42:08;32.20;;;21.58;;
40611;SDS011;26317;44.894;20.286;2024-02-21T15:44:50;22.98;;;13.45;;
40611;SDS011;26317;44.894;20.286;2024-02-21T15:47:28;23.05;;;13.23;;
40611;SDS011;26317;44.894;20.286;2024-02-21T15:50:20;22.85;;;12.60;;
40611;SDS011;26317;44.894;20.286;2024-02-21T15:53:03;23.75;;;11.63;;
40611;SDS011;26317;44.894;20.286;2024-02-21T15:55:44;23.25;;;10.75;;
40611;SDS011;26317;44.894;20.286;2024-02-21T15:58:27;19.80;;;10.50;;